sensor_id;sensor_type;location;lat;lon;timestamp;P1;durP1;ratioP1;P2;durP2;ratioP2
52866;SDS011;38739;53.324;6.862;2023-04-24T00:01:43;9.35;;;7.60;;
52866;SDS011;38739;53.324;6.862;2023-04-24T00:04:09;9.85;;;7.80;;
52866;SDS011;38739;53.324;6.862;2023-04-24T00:06:36;9.15;;;8.02;;
52866;SDS011;38739;53.324;6.862;2023-04-24T00:09:03;10.52;;;8.65;;
52866;SDS011;38739;53.324;6.862;2023-04-24T00:11:29;9.52;;;8.25;;
52866;SDS011;38739;53.324;6.862;2023-04-24T00:13:55;8.93;;;7.97;;
52866;SDS011;38739;53.324;6.862;2023-04-24T00:16:22;8.38;;;7.50;;
52866;SDS011;38739;53.324;6.862;2023-04-24T00:18:48;9.35;;;7.50;;
52866;SDS011;38739;53.324;6.862;2023-04-24T00:21:14;10.60;;;7.65;;
52866;SDS011;38739;53.324;6.862;2023-04-24T00:23:42;8.73;;;7.82;;
52866;SDS011;38739;53.324;6.862;2023-04-24T00:26:09;7.90;;;7.10;;
52866;SDS011;38739;53.324;6.862;2023-04-24T00:28:34;7.80;;;7.00;;
52866;SDS011;38739;53.324;6.862;2023-04-24T00:31:00;9.25;;;7.20;;
52866;SDS011;38739;53.324;6.862;2023-04-24T00:33:26;8.95;;;6.78;;
52866;SDS011;38739;53.324;6.862;2023-04-24T00:35:52;7.85;;;6.50;;
52866;SDS011;38739;53.324;6.862;2023-04-24T00:38:17;9.25;;;6.03;;
52866;SDS011;38739;53.324;6.862;2023-04-24T00:40:43;5.70;;;4.78;;
52866;SDS011;38739;53.324;6.862;2023-04-24T00:43:09;5.88;;;4.30;;
52866;SDS011;38739;53.324;6.862;2023-04-24T00:45:36;5.28;;;3.55;;
52866;SDS011;38739;53.324;6.862;2023-04-24T00:48:01;3.60;;;3.03;;
52866;SDS011;38739;53.324;6.862;2023-04-24T00:50:28;3.47;;;3.17;;
52866;SDS011;38739;53.324;6.862;2023-04-24T00:52:54;4.50;;;2.17;;
52866;SDS011;38739;53.324;6.862;2023-04-24T00:55:20;4.20;;;2.05;;
52866;SDS011;38739;53.324;6.862;2023-04-24T00:57:46;1.73;;;1.60;;
52866;SDS011;38739;53.324;6.862;2023-04-24T01:00:14;1.60;;;1.50;;
52866;SDS011;38739;53.324;6.862;2023-04-24T01:02:41;2.15;;;1.15;;
52866;SDS011;38739;53.324;6.862;2023-04-24T01:05:10;0.90;;;0.80;;
52866;SDS011;38739;53.324;6.862;2023-04-24T01:07:43;1.02;;;0.93;;
52866;SDS011;38739;53.324;6.862;2023-04-24T01:10:13;1.17;;;1.08;;
52866;SDS011;38739;53.324;6.862;2023-04-24T01:12:39;1.20;;;1.10;;
52866;SDS011;38739;53.324;6.862;2023-04-24T01:15:05;1.45;;;1.08;;
52866;SDS011;38739;53.324;6.862;2023-04-24T01:17:32;1.20;;;1.08;;
52866;SDS011;38739;53.324;6.862;2023-04-24T01:19:59;2.00;;;1.30;;
52866;SDS011;38739;53.324;6.862;2023-04-24T01:22:26;1.40;;;1.30;;
52866;SDS011;38739;53.324;6.862;2023-04-24T01:24:52;2.10;;;1.30;;
52866;SDS011;38739;53.324;6.862;2023-04-24T01:27:18;1.60;;;1.50;;
52866;SDS011;38739;53.324;6.862;2023-04-24T01:29:45;2.55;;;1.58;;
52866;SDS011;38739;53.324;6.862;2023-04-24T01:32:12;2.13;;;1.90;;
52866;SDS011;38739;53.324;6.862;2023-04-24T01:34:38;2.38;;;1.83;;
52866;SDS011;38739;53.324;6.862;2023-04-24T01:37:05;2.53;;;2.00;;
52866;SDS011;38739;53.324;6.862;2023-04-24T01:39:32;2.97;;;2.20;;
52866;SDS011;38739;53.324;6.862;2023-04-24T01:41:58;3.83;;;2.60;;
52866;SDS011;38739;53.324;6.862;2023-04-24T01:44:25;3.35;;;2.70;;
52866;SDS011;38739;53.324;6.862;2023-04-24T01:46:52;3.30;;;2.97;;
52866;SDS011;38739;53.324;6.862;2023-04-24T01:49:19;5.75;;;3.53;;
52866;SDS011;38739;53.324;6.862;2023-04-24T01:51:45;6.18;;;3.75;;
52866;SDS011;38739;53.324;6.862;2023-04-24T01:54:11;5.35;;;3.60;;
52866;SDS011;38739;53.324;6.862;2023-04-24T01:56:37;4.10;;;3.72;;
52866;SDS011;38739;53.324;6.862;2023-04-24T01:59:07;4.70;;;3.83;;
52866;SDS011;38739;53.324;6.862;2023-04-24T02:01:36;4.05;;;3.65;;
52866;SDS011;38739;53.324;6.862;2023-04-24T02:04:03;4.10;;;3.80;;
52866;SDS011;38739;53.324;6.862;2023-04-24T02:06:29;4.63;;;3.33;;
52866;SDS011;38739;53.324;6.862;2023-04-24T02:08:56;3.83;;;3.45;;
52866;SDS011;38739;53.324;6.862;2023-04-24T02:11:23;5.50;;;3.42;;
52866;SDS011;38739;53.324;6.862;2023-04-24T02:13:48;4.45;;;3.40;;
52866;SDS011;38739;53.324;6.862;2023-04-24T02:16:15;4.25;;;3.55;;
52866;SDS011;38739;53.324;6.862;2023-04-24T02:18:41;4.38;;;3.42;;
52866;SDS011;38739;53.324;6.862;2023-04-24T02:21:07;3.90;;;3.60;;
52866;SDS011;38739;53.324;6.862;2023-04-24T02:23:32;3.60;;;3.30;;
52866;SDS011;38739;53.324;6.862;2023-04-24T02:25:58;4.63;;;3.55;;
52866;SDS011;38739;53.324;6.862;2023-04-24T02:28:23;4.18;;;3.75;;
52866;SDS011;38739;53.324;6.862;2023-04-24T02:30:49;3.80;;;3.50;;
52866;SDS011;38739;53.324;6.862;2023-04-24T02:33:16;5.00;;;3.60;;
52866;SDS011;38739;53.324;6.862;2023-04-24T02:35:41;3.90;;;3.60;;
52866;SDS011;38739;53.324;6.862;2023-04-24T02:38:07;4.15;;;3.80;;
52866;SDS011;38739;53.324;6.862;2023-04-24T02:40:32;3.80;;;3.50;;
52866;SDS011;38739;53.324;6.862;2023-04-24T02:42:58;4.00;;;3.70;;
52866;SDS011;38739;53.324;6.862;2023-04-24T02:45:24;7.90;;;4.05;;
52866;SDS011;38739;53.324;6.862;2023-04-24T02:47:49;4.70;;;4.30;;
52866;SDS011;38739;53.324;6.862;2023-04-24T02:50:15;4.75;;;4.15;;
52866;SDS011;38739;53.324;6.862;2023-04-24T02:52:41;4.85;;;4.45;;
52866;SDS011;38739;53.324;6.862;2023-04-24T02:55:07;4.65;;;4.20;;
52866;SDS011;38739;53.324;6.862;2023-04-24T02:57:33;4.95;;;4.50;;
52866;SDS011;38739;53.324;6.862;2023-04-24T02:59:59;4.90;;;4.40;;
52866;SDS011;38739;53.324;6.862;2023-04-24T03:02:25;5.90;;;4.70;;
52866;SDS011;38739;53.324;6.862;2023-04-24T03:04:50;5.50;;;5.00;;
52866;SDS011;38739;53.324;6.862;2023-04-24T03:07:16;6.43;;;5.47;;
52866;SDS011;38739;53.324;6.862;2023-04-24T03:09:42;5.97;;;5.47;;
52866;SDS011;38739;53.324;6.862;2023-04-24T03:12:08;6.78;;;6.07;;
52866;SDS011;38739;53.324;6.862;2023-04-24T03:14:33;6.20;;;5.60;;
52866;SDS011;38739;53.324;6.862;2023-04-24T03:16:59;7.47;;;6.18;;
52866;SDS011;38739;53.324;6.862;2023-04-24T03:19:25;7.18;;;6.47;;
52866;SDS011;38739;53.324;6.862;2023-04-24T03:21:52;9.15;;;6.10;;
52866;SDS011;38739;53.324;6.862;2023-04-24T03:24:17;9.10;;;7.15;;
52866;SDS011;38739;53.324;6.862;2023-04-24T03:26:43;7.88;;;7.18;;
52866;SDS011;38739;53.324;6.862;2023-04-24T03:29:09;8.02;;;7.32;;
52866;SDS011;38739;53.324;6.862;2023-04-24T03:31:34;7.50;;;6.80;;
52866;SDS011;38739;53.324;6.862;2023-04-24T03:34:00;7.35;;;6.32;;
52866;SDS011;38739;53.324;6.862;2023-04-24T03:36:26;8.90;;;7.20;;
52866;SDS011;38739;53.324;6.862;2023-04-24T03:38:52;8.07;;;7.38;;
52866;SDS011;38739;53.324;6.862;2023-04-24T03:41:18;8.40;;;6.97;;
52866;SDS011;38739;53.324;6.862;2023-04-24T03:43:44;7.20;;;6.50;;
52866;SDS011;38739;53.324;6.862;2023-04-24T03:46:09;7.53;;;6.30;;
52866;SDS011;38739;53.324;6.862;2023-04-24T03:48:35;7.35;;;6.65;;
52866;SDS011;38739;53.324;6.862;2023-04-24T03:51:01;7.70;;;6.90;;
52866;SDS011;38739;53.324;6.862;2023-04-24T03:53:26;8.10;;;7.30;;
52866;SDS011;38739;53.324;6.862;2023-04-24T03:55:52;8.35;;;7.38;;
52866;SDS011;38739;53.324;6.862;2023-04-24T03:58:18;8.45;;;7.65;;
52866;SDS011;38739;53.324;6.862;2023-04-24T04:00:44;9.60;;;8.63;;
52866;SDS011;38739;53.324;6.862;2023-04-24T04:03:12;11.57;;;10.45;;
52866;SDS011;38739;53.324;6.862;2023-04-24T04:05:39;12.70;;;11.43;;
52866;SDS011;38739;53.324;6.862;2023-04-24T04:08:05;13.43;;;12.05;;
52866;SDS011;38739;53.324;6.862;2023-04-24T04:10:31;12.65;;;11.43;;
52866;SDS011;38739;53.324;6.862;2023-04-24T04:12:56;13.05;;;11.73;;
52866;SDS011;38739;53.324;6.862;2023-04-24T04:15:22;13.30;;;11.68;;
52866;SDS011;38739;53.324;6.862;2023-04-24T04:17:47;12.55;;;11.30;;
52866;SDS011;38739;53.324;6.862;2023-04-24T04:20:13;14.13;;;12.73;;
52866;SDS011;38739;53.324;6.862;2023-04-24T04:22:39;13.10;;;11.70;;
52866;SDS011;38739;53.324;6.862;2023-04-24T04:25:05;13.13;;;11.68;;
52866;SDS011;38739;53.324;6.862;2023-04-24T04:27:31;12.13;;;10.93;;
52866;SDS011;38739;53.324;6.862;2023-04-24T04:29:58;13.60;;;12.20;;
52866;SDS011;38739;53.324;6.862;2023-04-24T04:32:26;12.07;;;10.98;;
52866;SDS011;38739;53.324;6.862;2023-04-24T04:34:52;11.45;;;10.35;;
52866;SDS011;38739;53.324;6.862;2023-04-24T04:37:18;11.32;;;10.23;;
52866;SDS011;38739;53.324;6.862;2023-04-24T04:39:44;12.45;;;10.50;;
52866;SDS011;38739;53.324;6.862;2023-04-24T04:42:09;11.82;;;10.65;;
52866;SDS011;38739;53.324;6.862;2023-04-24T04:44:35;11.45;;;10.35;;
52866;SDS011;38739;53.324;6.862;2023-04-24T04:47:01;11.05;;;10.00;;
52866;SDS011;38739;53.324;6.862;2023-04-24T04:49:30;10.82;;;9.68;;
52866;SDS011;38739;53.324;6.862;2023-04-24T04:51:57;10.52;;;9.43;;
52866;SDS011;38739;53.324;6.862;2023-04-24T04:54:22;10.05;;;9.15;;
52866;SDS011;38739;53.324;6.862;2023-04-24T04:56:51;12.25;;;9.30;;
52866;SDS011;38739;53.324;6.862;2023-04-24T04:59:17;9.00;;;8.13;;
52866;SDS011;38739;53.324;6.862;2023-04-24T05:01:43;9.02;;;8.23;;
52866;SDS011;38739;53.324;6.862;2023-04-24T05:04:08;8.50;;;7.70;;
52866;SDS011;38739;53.324;6.862;2023-04-24T05:06:34;10.38;;;8.25;;
52866;SDS011;38739;53.324;6.862;2023-04-24T05:09:00;9.00;;;8.15;;
52866;SDS011;38739;53.324;6.862;2023-04-24T05:11:25;11.07;;;8.63;;
52866;SDS011;38739;53.324;6.862;2023-04-24T05:13:51;9.48;;;8.50;;
52866;SDS011;38739;53.324;6.862;2023-04-24T05:16:17;9.75;;;8.77;;
52866;SDS011;38739;53.324;6.862;2023-04-24T05:18:43;9.57;;;8.32;;
52866;SDS011;38739;53.324;6.862;2023-04-24T05:21:08;11.43;;;9.15;;
52866;SDS011;38739;53.324;6.862;2023-04-24T05:23:34;10.55;;;8.98;;
52866;SDS011;38739;53.324;6.862;2023-04-24T05:26:00;11.43;;;9.80;;
52866;SDS011;38739;53.324;6.862;2023-04-24T05:28:25;10.75;;;9.55;;
52866;SDS011;38739;53.324;6.862;2023-04-24T05:30:54;10.52;;;9.20;;
52866;SDS011;38739;53.324;6.862;2023-04-24T05:33:21;10.20;;;9.25;;
52866;SDS011;38739;53.324;6.862;2023-04-24T05:35:47;9.68;;;8.70;;
52866;SDS011;38739;53.324;6.862;2023-04-24T05:38:13;11.95;;;9.55;;
52866;SDS011;38739;53.324;6.862;2023-04-24T05:40:42;11.30;;;10.07;;
52866;SDS011;38739;53.324;6.862;2023-04-24T05:43:08;11.20;;;9.50;;
52866;SDS011;38739;53.324;6.862;2023-04-24T05:45:34;9.63;;;8.63;;
52866;SDS011;38739;53.324;6.862;2023-04-24T05:48:01;9.43;;;8.10;;
52866;SDS011;38739;53.324;6.862;2023-04-24T05:50:27;8.38;;;7.57;;
52866;SDS011;38739;53.324;6.862;2023-04-24T05:52:53;9.40;;;7.70;;
52866;SDS011;38739;53.324;6.862;2023-04-24T05:55:18;7.70;;;6.90;;
52866;SDS011;38739;53.324;6.862;2023-04-24T05:57:44;7.70;;;6.80;;
52866;SDS011;38739;53.324;6.862;2023-04-24T06:00:11;6.90;;;6.30;;
52866;SDS011;38739;53.324;6.862;2023-04-24T06:02:37;7.55;;;6.38;;
52866;SDS011;38739;53.324;6.862;2023-04-24T06:05:03;6.68;;;6.07;;
52866;SDS011;38739;53.324;6.862;2023-04-24T06:07:30;6.97;;;6.28;;
52866;SDS011;38739;53.324;6.862;2023-04-24T06:09:56;7.38;;;6.55;;
52866;SDS011;38739;53.324;6.862;2023-04-24T06:12:22;6.63;;;6.03;;
52866;SDS011;38739;53.324;6.862;2023-04-24T06:14:48;8.27;;;6.50;;
52866;SDS011;38739;53.324;6.862;2023-04-24T06:17:14;6.60;;;5.90;;
52866;SDS011;38739;53.324;6.862;2023-04-24T06:19:40;7.50;;;6.72;;
52866;SDS011;38739;53.324;6.862;2023-04-24T06:22:06;7.20;;;6.07;;
52866;SDS011;38739;53.324;6.862;2023-04-24T06:24:33;7.55;;;6.55;;
52866;SDS011;38739;53.324;6.862;2023-04-24T06:26:59;9.15;;;7.20;;
52866;SDS011;38739;53.324;6.862;2023-04-24T06:29:26;9.38;;;7.40;;
52866;SDS011;38739;53.324;6.862;2023-04-24T06:31:52;10.13;;;8.02;;
52866;SDS011;38739;53.324;6.862;2023-04-24T06:34:17;9.57;;;6.70;;
52866;SDS011;38739;53.324;6.862;2023-04-24T06:36:43;8.80;;;6.40;;
52866;SDS011;38739;53.324;6.862;2023-04-24T06:39:09;10.43;;;6.47;;
52866;SDS011;38739;53.324;6.862;2023-04-24T06:41:35;8.13;;;6.47;;
52866;SDS011;38739;53.324;6.862;2023-04-24T06:44:00;11.25;;;7.30;;
52866;SDS011;38739;53.324;6.862;2023-04-24T06:46:26;8.73;;;6.65;;
52866;SDS011;38739;53.324;6.862;2023-04-24T06:48:53;10.18;;;7.03;;
52866;SDS011;38739;53.324;6.862;2023-04-24T06:51:25;10.38;;;6.93;;
52866;SDS011;38739;53.324;6.862;2023-04-24T06:53:52;10.98;;;7.80;;
52866;SDS011;38739;53.324;6.862;2023-04-24T06:56:19;10.98;;;8.43;;
52866;SDS011;38739;53.324;6.862;2023-04-24T06:58:45;13.02;;;7.57;;
52866;SDS011;38739;53.324;6.862;2023-04-24T07:01:11;11.05;;;8.13;;
52866;SDS011;38739;53.324;6.862;2023-04-24T07:03:37;10.23;;;8.10;;
52866;SDS011;38739;53.324;6.862;2023-04-24T07:06:04;9.00;;;7.80;;
52866;SDS011;38739;53.324;6.862;2023-04-24T07:08:30;10.93;;;7.07;;
52866;SDS011;38739;53.324;6.862;2023-04-24T07:10:56;7.47;;;5.45;;
52866;SDS011;38739;53.324;6.862;2023-04-24T07:13:22;7.22;;;4.97;;
52866;SDS011;38739;53.324;6.862;2023-04-24T07:15:48;6.32;;;4.15;;
52866;SDS011;38739;53.324;6.862;2023-04-24T07:18:19;8.93;;;5.40;;
52866;SDS011;38739;53.324;6.862;2023-04-24T07:20:45;7.68;;;5.40;;
52866;SDS011;38739;53.324;6.862;2023-04-24T07:23:11;7.00;;;5.43;;
52866;SDS011;38739;53.324;6.862;2023-04-24T07:25:37;8.80;;;5.50;;
52866;SDS011;38739;53.324;6.862;2023-04-24T07:28:03;7.38;;;4.72;;
52866;SDS011;38739;53.324;6.862;2023-04-24T07:30:29;8.52;;;5.93;;
52866;SDS011;38739;53.324;6.862;2023-04-24T07:32:57;6.50;;;5.35;;
52866;SDS011;38739;53.324;6.862;2023-04-24T07:35:23;8.48;;;5.97;;
52866;SDS011;38739;53.324;6.862;2023-04-24T07:37:51;6.00;;;5.40;;
52866;SDS011;38739;53.324;6.862;2023-04-24T07:40:20;5.85;;;5.07;;
52866;SDS011;38739;53.324;6.862;2023-04-24T07:42:46;6.65;;;4.80;;
52866;SDS011;38739;53.324;6.862;2023-04-24T07:45:13;5.22;;;4.70;;
52866;SDS011;38739;53.324;6.862;2023-04-24T07:47:41;7.55;;;5.10;;
52866;SDS011;38739;53.324;6.862;2023-04-24T07:50:09;6.25;;;4.82;;
52866;SDS011;38739;53.324;6.862;2023-04-24T07:52:35;5.78;;;4.50;;
52866;SDS011;38739;53.324;6.862;2023-04-24T07:55:01;7.82;;;3.70;;
52866;SDS011;38739;53.324;6.862;2023-04-24T07:57:27;6.93;;;3.40;;
52866;SDS011;38739;53.324;6.862;2023-04-24T07:59:53;8.20;;;3.28;;
52866;SDS011;38739;53.324;6.862;2023-04-24T08:02:19;5.40;;;3.17;;
52866;SDS011;38739;53.324;6.862;2023-04-24T08:04:51;7.13;;;3.20;;
52866;SDS011;38739;53.324;6.862;2023-04-24T08:07:19;4.47;;;2.78;;
52866;SDS011;38739;53.324;6.862;2023-04-24T08:09:45;7.80;;;2.85;;
52866;SDS011;38739;53.324;6.862;2023-04-24T08:12:11;6.57;;;3.05;;
52866;SDS011;38739;53.324;6.862;2023-04-24T08:14:36;7.90;;;4.20;;
52866;SDS011;38739;53.324;6.862;2023-04-24T08:17:02;7.47;;;4.15;;
52866;SDS011;38739;53.324;6.862;2023-04-24T08:19:28;8.80;;;4.13;;
52866;SDS011;38739;53.324;6.862;2023-04-24T08:21:54;6.70;;;4.38;;
52866;SDS011;38739;53.324;6.862;2023-04-24T08:24:20;7.47;;;4.80;;
52866;SDS011;38739;53.324;6.862;2023-04-24T08:26:48;8.50;;;4.47;;
52866;SDS011;38739;53.324;6.862;2023-04-24T08:29:19;9.85;;;5.28;;
52866;SDS011;38739;53.324;6.862;2023-04-24T08:31:44;9.75;;;5.75;;
52866;SDS011;38739;53.324;6.862;2023-04-24T08:34:10;9.68;;;6.13;;
52866;SDS011;38739;53.324;6.862;2023-04-24T08:36:36;9.35;;;6.00;;
52866;SDS011;38739;53.324;6.862;2023-04-24T08:39:02;10.13;;;6.38;;
52866;SDS011;38739;53.324;6.862;2023-04-24T08:41:28;10.35;;;7.15;;
52866;SDS011;38739;53.324;6.862;2023-04-24T08:43:55;11.18;;;8.02;;
52866;SDS011;38739;53.324;6.862;2023-04-24T08:46:23;12.43;;;9.20;;
52866;SDS011;38739;53.324;6.862;2023-04-24T08:48:50;15.02;;;9.93;;
52866;SDS011;38739;53.324;6.862;2023-04-24T08:51:17;16.85;;;10.60;;
52866;SDS011;38739;53.324;6.862;2023-04-24T08:53:43;20.20;;;14.32;;
52866;SDS011;38739;53.324;6.862;2023-04-24T08:56:10;25.65;;;15.10;;
52866;SDS011;38739;53.324;6.862;2023-04-24T08:58:37;27.02;;;16.55;;
52866;SDS011;38739;53.324;6.862;2023-04-24T09:01:04;30.23;;;16.98;;
52866;SDS011;38739;53.324;6.862;2023-04-24T09:03:30;29.25;;;18.13;;
52866;SDS011;38739;53.324;6.862;2023-04-24T09:05:57;33.10;;;18.40;;
52866;SDS011;38739;53.324;6.862;2023-04-24T09:08:25;30.63;;;18.25;;
52866;SDS011;38739;53.324;6.862;2023-04-24T09:10:53;30.13;;;16.90;;
52866;SDS011;38739;53.324;6.862;2023-04-24T09:13:19;25.08;;;16.33;;
52866;SDS011;38739;53.324;6.862;2023-04-24T09:15:45;29.88;;;15.90;;
52866;SDS011;38739;53.324;6.862;2023-04-24T09:18:11;26.77;;;16.00;;
52866;SDS011;38739;53.324;6.862;2023-04-24T09:23:23;23.80;;;15.02;;
52866;SDS011;38739;53.324;6.862;2023-04-24T09:25:55;30.25;;;16.05;;
52866;SDS011;38739;53.324;6.862;2023-04-24T09:28:31;27.73;;;16.83;;
52866;SDS011;38739;53.324;6.862;2023-04-24T09:33:29;23.52;;;15.00;;
52866;SDS011;38739;53.324;6.862;2023-04-24T09:35:55;26.25;;;15.50;;
52866;SDS011;38739;53.324;6.862;2023-04-24T09:38:37;26.30;;;14.20;;
52866;SDS011;38739;53.324;6.862;2023-04-24T09:41:07;21.58;;;14.48;;
52866;SDS011;38739;53.324;6.862;2023-04-24T09:43:33;23.85;;;13.80;;
52866;SDS011;38739;53.324;6.862;2023-04-24T09:46:04;22.52;;;13.32;;
52866;SDS011;38739;53.324;6.862;2023-04-24T09:48:35;25.23;;;13.15;;
52866;SDS011;38739;53.324;6.862;2023-04-24T09:51:02;21.17;;;11.35;;
52866;SDS011;38739;53.324;6.862;2023-04-24T09:53:31;18.70;;;12.13;;
52866;SDS011;38739;53.324;6.862;2023-04-24T09:56:07;20.13;;;11.95;;
52866;SDS011;38739;53.324;6.862;2023-04-24T09:58:34;21.33;;;12.68;;
52866;SDS011;38739;53.324;6.862;2023-04-24T10:01:01;19.70;;;11.13;;
52866;SDS011;38739;53.324;6.862;2023-04-24T10:03:31;20.63;;;10.40;;
52866;SDS011;38739;53.324;6.862;2023-04-24T10:06:01;17.45;;;10.57;;
52866;SDS011;38739;53.324;6.862;2023-04-24T10:08:33;19.90;;;10.40;;
52866;SDS011;38739;53.324;6.862;2023-04-24T10:13:26;20.15;;;11.02;;
52866;SDS011;38739;53.324;6.862;2023-04-24T10:15:52;19.73;;;11.20;;
52866;SDS011;38739;53.324;6.862;2023-04-24T10:18:19;15.48;;;10.80;;
52866;SDS011;38739;53.324;6.862;2023-04-24T10:20:46;18.42;;;9.50;;
52866;SDS011;38739;53.324;6.862;2023-04-24T10:23:12;23.77;;;9.48;;
52866;SDS011;38739;53.324;6.862;2023-04-24T10:25:38;20.13;;;9.07;;
52866;SDS011;38739;53.324;6.862;2023-04-24T10:28:04;18.55;;;8.10;;
52866;SDS011;38739;53.324;6.862;2023-04-24T10:30:31;16.02;;;7.68;;
52866;SDS011;38739;53.324;6.862;2023-04-24T10:33:04;18.00;;;7.60;;
52866;SDS011;38739;53.324;6.862;2023-04-24T10:35:34;14.27;;;7.33;;
52866;SDS011;38739;53.324;6.862;2023-04-24T10:38:05;18.75;;;7.32;;
52866;SDS011;38739;53.324;6.862;2023-04-24T10:40:34;16.25;;;6.88;;
52866;SDS011;38739;53.324;6.862;2023-04-24T10:43:05;18.98;;;7.07;;
52866;SDS011;38739;53.324;6.862;2023-04-24T10:45:33;15.90;;;7.18;;
52866;SDS011;38739;53.324;6.862;2023-04-24T10:50:29;12.48;;;6.13;;
52866;SDS011;38739;53.324;6.862;2023-04-24T10:53:19;12.32;;;6.18;;
52866;SDS011;38739;53.324;6.862;2023-04-24T10:55:49;14.43;;;6.32;;
52866;SDS011;38739;53.324;6.862;2023-04-24T10:58:18;12.25;;;5.85;;
52866;SDS011;38739;53.324;6.862;2023-04-24T11:00:55;13.30;;;5.80;;
52866;SDS011;38739;53.324;6.862;2023-04-24T11:06:15;10.48;;;5.57;;
52866;SDS011;38739;53.324;6.862;2023-04-24T11:08:44;11.30;;;4.78;;
52866;SDS011;38739;53.324;6.862;2023-04-24T11:11:11;10.05;;;4.75;;
52866;SDS011;38739;53.324;6.862;2023-04-24T11:16:20;10.35;;;3.97;;
52866;SDS011;38739;53.324;6.862;2023-04-24T11:18:51;10.57;;;4.55;;
52866;SDS011;38739;53.324;6.862;2023-04-24T11:21:19;12.38;;;4.55;;
52866;SDS011;38739;53.324;6.862;2023-04-24T11:23:47;13.88;;;4.35;;
52866;SDS011;38739;53.324;6.862;2023-04-24T11:26:14;10.27;;;4.00;;
52866;SDS011;38739;53.324;6.862;2023-04-24T11:29:05;8.90;;;3.35;;
52866;SDS011;38739;53.324;6.862;2023-04-24T11:34:05;10.98;;;4.00;;
52866;SDS011;38739;53.324;6.862;2023-04-24T11:36:35;10.18;;;3.88;;
52866;SDS011;38739;53.324;6.862;2023-04-24T11:39:02;11.20;;;3.53;;
52866;SDS011;38739;53.324;6.862;2023-04-24T11:41:28;12.68;;;3.40;;
52866;SDS011;38739;53.324;6.862;2023-04-24T11:43:53;10.93;;;3.20;;
52866;SDS011;38739;53.324;6.862;2023-04-24T11:46:20;8.30;;;3.00;;
52866;SDS011;38739;53.324;6.862;2023-04-24T11:48:46;8.80;;;2.78;;
52866;SDS011;38739;53.324;6.862;2023-04-24T11:51:15;10.30;;;2.92;;
52866;SDS011;38739;53.324;6.862;2023-04-24T11:53:41;8.10;;;2.55;;
52866;SDS011;38739;53.324;6.862;2023-04-24T11:56:08;8.02;;;2.60;;
52866;SDS011;38739;53.324;6.862;2023-04-24T11:58:37;10.75;;;2.75;;
52866;SDS011;38739;53.324;6.862;2023-04-24T12:01:04;9.55;;;2.67;;
52866;SDS011;38739;53.324;6.862;2023-04-24T12:03:30;11.35;;;2.97;;
52866;SDS011;38739;53.324;6.862;2023-04-24T12:06:06;7.38;;;2.40;;
52866;SDS011;38739;53.324;6.862;2023-04-24T12:08:35;9.75;;;2.33;;
52866;SDS011;38739;53.324;6.862;2023-04-24T12:11:02;7.35;;;2.40;;
52866;SDS011;38739;53.324;6.862;2023-04-24T12:13:29;7.20;;;2.20;;
52866;SDS011;38739;53.324;6.862;2023-04-24T12:15:56;6.95;;;1.77;;
52866;SDS011;38739;53.324;6.862;2023-04-24T12:18:23;6.95;;;1.70;;
52866;SDS011;38739;53.324;6.862;2023-04-24T12:20:48;7.50;;;1.80;;
52866;SDS011;38739;53.324;6.862;2023-04-24T12:23:15;7.55;;;1.70;;
52866;SDS011;38739;53.324;6.862;2023-04-24T12:25:41;5.55;;;1.55;;
52866;SDS011;38739;53.324;6.862;2023-04-24T12:28:10;9.20;;;1.80;;
52866;SDS011;38739;53.324;6.862;2023-04-24T12:30:41;7.72;;;1.80;;
52866;SDS011;38739;53.324;6.862;2023-04-24T12:33:16;12.45;;;2.10;;
52866;SDS011;38739;53.324;6.862;2023-04-24T12:35:43;8.52;;;2.17;;
52866;SDS011;38739;53.324;6.862;2023-04-24T12:38:09;10.77;;;2.30;;
52866;SDS011;38739;53.324;6.862;2023-04-24T12:40:38;7.65;;;1.90;;
52866;SDS011;38739;53.324;6.862;2023-04-24T12:43:14;13.35;;;2.30;;
52866;SDS011;38739;53.324;6.862;2023-04-24T12:45:41;7.35;;;1.80;;
52866;SDS011;38739;53.324;6.862;2023-04-24T12:48:07;7.82;;;1.80;;
52866;SDS011;38739;53.324;6.862;2023-04-24T12:50:32;8.63;;;1.80;;
52866;SDS011;38739;53.324;6.862;2023-04-24T12:52:58;8.63;;;1.60;;
52866;SDS011;38739;53.324;6.862;2023-04-24T12:55:24;7.78;;;1.60;;
52866;SDS011;38739;53.324;6.862;2023-04-24T12:57:49;6.75;;;1.40;;
52866;SDS011;38739;53.324;6.862;2023-04-24T13:00:15;5.80;;;1.38;;
52866;SDS011;38739;53.324;6.862;2023-04-24T13:02:41;10.95;;;1.77;;
52866;SDS011;38739;53.324;6.862;2023-04-24T13:05:08;5.80;;;1.60;;
52866;SDS011;38739;53.324;6.862;2023-04-24T13:07:34;6.85;;;1.58;;
52866;SDS011;38739;53.324;6.862;2023-04-24T13:10:00;7.28;;;1.67;;
52866;SDS011;38739;53.324;6.862;2023-04-24T13:12:25;7.60;;;1.75;;
52866;SDS011;38739;53.324;6.862;2023-04-24T13:14:52;8.18;;;1.42;;
52866;SDS011;38739;53.324;6.862;2023-04-24T13:17:18;7.20;;;1.63;;
52866;SDS011;38739;53.324;6.862;2023-04-24T13:19:43;11.75;;;2.00;;
52866;SDS011;38739;53.324;6.862;2023-04-24T13:22:10;9.63;;;1.63;;
52866;SDS011;38739;53.324;6.862;2023-04-24T13:24:37;7.65;;;1.95;;
52866;SDS011;38739;53.324;6.862;2023-04-24T13:27:04;10.73;;;1.58;;
52866;SDS011;38739;53.324;6.862;2023-04-24T13:29:30;7.28;;;1.77;;
52866;SDS011;38739;53.324;6.862;2023-04-24T13:31:56;7.50;;;1.50;;
52866;SDS011;38739;53.324;6.862;2023-04-24T13:34:25;6.80;;;1.40;;
52866;SDS011;38739;53.324;6.862;2023-04-24T13:36:55;8.63;;;1.20;;
52866;SDS011;38739;53.324;6.862;2023-04-24T13:39:22;6.43;;;1.55;;
52866;SDS011;38739;53.324;6.862;2023-04-24T13:41:48;5.28;;;1.25;;
52866;SDS011;38739;53.324;6.862;2023-04-24T13:44:15;8.18;;;1.58;;
52866;SDS011;38739;53.324;6.862;2023-04-24T13:46:42;11.00;;;1.13;;
52866;SDS011;38739;53.324;6.862;2023-04-24T13:49:09;6.30;;;1.13;;
52866;SDS011;38739;53.324;6.862;2023-04-24T13:51:36;5.60;;;1.20;;
52866;SDS011;38739;53.324;6.862;2023-04-24T13:54:02;6.97;;;1.25;;
52866;SDS011;38739;53.324;6.862;2023-04-24T13:56:27;9.45;;;1.70;;
52866;SDS011;38739;53.324;6.862;2023-04-24T13:58:53;10.40;;;1.55;;
52866;SDS011;38739;53.324;6.862;2023-04-24T14:01:19;8.57;;;1.27;;
52866;SDS011;38739;53.324;6.862;2023-04-24T14:03:49;6.65;;;1.70;;
52866;SDS011;38739;53.324;6.862;2023-04-24T14:06:15;8.52;;;1.60;;
52866;SDS011;38739;53.324;6.862;2023-04-24T14:08:41;7.50;;;1.17;;
52866;SDS011;38739;53.324;6.862;2023-04-24T14:11:06;5.72;;;1.30;;
52866;SDS011;38739;53.324;6.862;2023-04-24T14:13:32;3.22;;;1.00;;
52866;SDS011;38739;53.324;6.862;2023-04-24T14:15:58;2.83;;;0.93;;
52866;SDS011;38739;53.324;6.862;2023-04-24T14:18:24;4.75;;;1.10;;
52866;SDS011;38739;53.324;6.862;2023-04-24T14:20:49;5.60;;;1.30;;
52866;SDS011;38739;53.324;6.862;2023-04-24T14:23:15;6.57;;;1.40;;
52866;SDS011;38739;53.324;6.862;2023-04-24T14:25:41;5.63;;;1.30;;
52866;SDS011;38739;53.324;6.862;2023-04-24T14:28:07;5.95;;;2.00;;
52866;SDS011;38739;53.324;6.862;2023-04-24T14:30:33;9.00;;;2.28;;
52866;SDS011;38739;53.324;6.862;2023-04-24T14:32:58;5.07;;;1.70;;
52866;SDS011;38739;53.324;6.862;2023-04-24T14:35:24;7.80;;;2.08;;
52866;SDS011;38739;53.324;6.862;2023-04-24T14:37:50;8.88;;;1.80;;
52866;SDS011;38739;53.324;6.862;2023-04-24T14:40:16;6.78;;;1.80;;
52866;SDS011;38739;53.324;6.862;2023-04-24T14:42:42;10.63;;;2.33;;
52866;SDS011;38739;53.324;6.862;2023-04-24T14:45:07;9.00;;;2.30;;
52866;SDS011;38739;53.324;6.862;2023-04-24T14:47:34;10.05;;;2.20;;
52866;SDS011;38739;53.324;6.862;2023-04-24T14:49:59;9.40;;;2.38;;
52866;SDS011;38739;53.324;6.862;2023-04-24T14:52:25;7.38;;;2.55;;
52866;SDS011;38739;53.324;6.862;2023-04-24T14:54:50;11.82;;;3.05;;
52866;SDS011;38739;53.324;6.862;2023-04-24T14:57:16;7.30;;;2.70;;